Time;durP1;ratioP1;P1;durP2;ratioP2;P2;SDS_P1;SDS_P2;PMS_P1;PMS_P2;Temp;Humidity;BMP_temperature;BMP_pressure;BME280_temperature;BME280_humidity;BME280_pressure;Samples;Min_cycle;Max_cycle;Signal;HPM_P1;HPM_P2
2022/05/26 00:01:45;;;;;;;33.50;20.67;;;;;;;20.12;59.07;94119.31;4952639;28;20134;-72
2022/05/26 00:04:11;;;;;;;31.40;20.25;;;;;;;19.93;59.99;94124.84;4949628;28;20074;-72
2022/05/26 00:06:37;;;;;;;32.45;21.13;;;;;;;20.16;59.06;94120.94;4951085;28;20051;-72
2022/05/26 00:09:02;;;;;;;31.45;20.25;;;;;;;20.04;58.81;94106.88;4952517;28;20039;-72
2022/05/26 00:11:31;;;;;;;32.70;19.95;;;;;;;20.07;58.54;94109.59;4955339;28;20035;-72
2022/05/26 00:13:57;;;;;;;31.27;20.80;;;;;;;20.17;58.29;94122.50;4951665;28;20433;-72
2022/05/26 00:16:24;;;;;;;36.78;21.00;;;;;;;20.13;58.67;94120.88;4950871;28;20400;-72
2022/05/26 00:18:49;;;;;;;43.15;20.80;;;;;;;20.05;58.80;94094.91;4950100;28;20046;-72
2022/05/26 00:21:15;;;;;;;35.50;20.67;;;;;;;20.20;58.67;94115.56;4953247;28;20039;-72
2022/05/26 00:23:41;;;;;;;35.05;20.25;;;;;;;20.09;58.05;94098.44;4950967;28;20287;-72
2022/05/26 00:26:06;;;;;;;29.45;18.88;;;;;;;20.24;57.73;94115.66;4977924;28;20318;-72
2022/05/26 00:28:32;;;;;;;39.00;21.23;;;;;;;20.12;57.87;94105.81;4981408;28;20041;-72
2022/05/26 00:30:58;;;;;;;36.92;20.98;;;;;;;20.06;58.03;94104.56;4980548;28;20121;-72
2022/05/26 00:33:24;;;;;;;28.33;18.33;;;;;;;20.01;57.79;94088.69;4977594;28;20054;-72
2022/05/26 00:35:49;;;;;;;30.55;19.60;;;;;;;20.16;57.50;94104.75;4976174;28;20038;-73
2022/05/26 00:38:16;;;;;;;34.60;20.60;;;;;;;19.98;58.46;94102.91;4976917;28;22902;-72
2022/05/26 00:40:43;;;;;;;35.20;21.10;;;;;;;20.03;58.18;94111.47;4969699;28;20591;-71
2022/05/26 00:43:09;;;;;;;32.90;19.90;;;;;;;19.96;58.01;94084.38;4981746;28;20062;-73
2022/05/26 00:45:43;;;;;;;29.80;19.02;;;;;;;20.03;57.88;94106.09;4981264;28;20120;-73
2022/05/26 00:48:16;;;;;;;31.80;18.65;;;;;;;19.98;57.49;94094.81;4981608;28;20054;-72
2022/05/26 00:50:59;;;;;;;30.95;18.55;;;;;;;19.91;57.70;94098.19;4983830;28;20037;-72
2022/05/26 00:53:36;;;;;;;28.40;17.00;;;;;;;20.03;56.71;94110.69;4985835;28;20164;-73
2022/05/26 00:56:12;;;;;;;32.75;17.95;;;;;;;19.94;57.63;94112.91;4982106;28;20045;-72
2022/05/26 00:58:42;;;;;;;25.77;17.27;;;;;;;19.95;57.24;94109.81;4981757;28;20062;-73
2022/05/26 01:01:08;;;;;;;30.52;17.75;;;;;;;19.98;56.98;94108.31;4985318;28;20561;-72
2022/05/26 01:03:42;;;;;;;25.92;18.15;;;;;;;19.98;57.36;94119.13;4982250;28;20031;-72
2022/05/26 01:06:26;;;;;;;27.70;18.15;;;;;;;19.89;57.10;94094.31;4983914;28;20499;-72
2022/05/26 01:08:57;;;;;;;24.17;15.90;;;;;;;19.84;57.25;94110.81;4986497;28;20492;-72
2022/05/26 01:11:25;;;;;;;27.00;16.85;;;;;;;19.78;57.45;94107.66;4982628;28;20050;-72
2022/05/26 01:13:55;;;;;;;29.17;16.83;;;;;;;19.78;57.48;94120.38;4985824;28;20266;-72
2022/05/26 01:16:32;;;;;;;26.35;16.73;;;;;;;19.68;57.77;94121.75;4985674;28;20653;-73
2022/05/26 01:19:19;;;;;;;22.75;14.88;;;;;;;19.72;57.29;94131.47;4982784;28;20088;-72
2022/05/26 01:21:59;;;;;;;25.33;16.60;;;;;;;19.69;57.12;94121.41;4984026;28;20042;-73
2022/05/26 01:25:06;;;;;;;21.85;15.95;;;;;;;19.70;57.10;94127.59;4985963;28;20072;-72
2022/05/26 01:27:37;;;;;;;29.17;18.05;;;;;;;19.68;57.66;94133.34;4974381;28;20492;-72
2022/05/26 01:30:08;;;;;;;27.92;16.45;;;;;;;19.62;57.49;94134.00;4985537;28;20460;-72
2022/05/26 01:32:56;;;;;;;27.40;17.83;;;;;;;19.61;58.17;94129.75;4982166;28;20035;-72
2022/05/26 01:35:21;;;;;;;28.73;18.23;;;;;;;19.53;58.76;94130.78;4979917;28;20038;-72
2022/05/26 01:37:49;;;;;;;32.63;17.13;;;;;;;19.61;58.22;94137.84;4984827;28;20042;-73
2022/05/26 01:40:15;;;;;;;23.13;15.23;;;;;;;19.60;57.67;94142.44;4984194;28;20041;-72
2022/05/26 01:42:49;;;;;;;24.67;14.23;;;;;;;19.62;57.37;94134.78;4985399;28;20073;-73
2022/05/26 01:46:16;;;;;;;24.95;17.05;;;;;;;19.50;57.79;94145.78;4982801;28;20030;-72
2022/05/26 01:48:50;;;;;;;;;;;;;;;19.39;58.05;94147.50;5001894;28;20050;-72
2022/05/26 01:51:34;;;;;;;25.88;16.48;;;;;;;19.40;58.03;94151.75;4985720;28;19988;-72
2022/05/26 01:54:24;;;;;;;32.30;17.50;;;;;;;19.42;58.12;94149.47;4985091;28;20026;-72
2022/05/26 01:57:11;;;;;;;29.45;18.17;;;;;;;19.42;58.69;94146.75;4982651;28;20472;-71
2022/05/26 01:59:44;;;;;;;28.52;18.85;;;;;;;19.39;59.19;94141.31;4983837;28;20048;-72
2022/05/26 02:02:22;;;;;;;32.03;18.30;;;;;;;19.37;59.17;94130.09;4982499;28;20409;-73
2022/05/26 02:04:53;;;;;;;27.80;17.15;;;;;;;19.40;59.10;94140.97;4981617;28;20500;-72
2022/05/26 02:07:28;;;;;;;26.38;17.60;;;;;;;19.26;59.25;94138.03;4979101;28;20042;-71
2022/05/26 02:09:58;;;;;;;27.02;17.58;;;;;;;19.27;58.80;94129.56;4979861;28;20144;-73
2022/05/26 02:12:25;;;;;;;27.13;16.23;;;;;;;19.32;58.63;94133.88;4986098;28;20567;-73
2022/05/26 02:14:58;;;;;;;29.27;17.83;;;;;;;19.33;58.57;94136.22;4986587;28;20089;-72
2022/05/26 02:17:34;;;;;;;27.50;17.75;;;;;;;19.21;58.70;94125.59;4983269;28;20086;-72
2022/05/26 02:20:06;;;;;;;26.85;17.55;;;;;;;19.32;58.51;94131.19;4984406;28;20033;-72
2022/05/26 02:22:37;;;;;;;25.45;17.02;;;;;;;19.27;58.40;94126.09;4980518;28;20042;-72
2022/05/26 02:25:05;;;;;;;32.05;18.58;;;;;;;19.25;58.33;94123.00;4982103;28;20615;-72
2022/05/26 02:27:32;;;;;;;28.30;18.13;;;;;;;19.17;58.36;94119.38;4981597;28;20507;-72
2022/05/26 02:30:00;;;;;;;30.70;19.23;;;;;;;19.26;58.89;94133.41;4983414;28;20033;-73
2022/05/26 02:32:36;;;;;;;33.45;19.90;;;;;;;18.93;60.56;94143.97;4984775;28;20427;-72
2022/05/26 02:35:06;;;;;;;28.60;18.98;;;;;;;19.04;59.99;94153.03;4985758;28;20050;-72
2022/05/26 02:37:33;;;;;;;32.03;18.70;;;;;;;18.91;60.55;94156.28;4984817;28;20030;-72
2022/05/26 02:40:00;;;;;;;28.52;19.02;;;;;;;18.98;59.70;94135.59;4977584;28;20505;-72
2022/05/26 02:42:27;;;;;;;35.53;20.42;;;;;;;18.97;60.21;94147.50;4984047;28;20034;-73
2022/05/26 02:44:53;;;;;;;33.05;19.35;;;;;;;18.98;60.81;94159.09;4980333;28;20022;-72
2022/05/26 02:47:31;;;;;;;34.42;20.50;;;;;;;18.92;61.03;94155.13;4982262;28;20618;-72
2022/05/26 02:50:08;;;;;;;31.58;18.60;;;;;;;18.89;60.63;94143.16;4978594;28;20133;-72
2022/05/26 02:52:45;;;;;;;30.00;18.48;;;;;;;18.87;61.17;94137.34;4984559;28;20086;-72
2022/05/26 02:55:39;;;;;;;32.50;18.25;;;;;;;18.94;60.58;94136.69;4983059;28;20048;-72
2022/05/26 02:58:10;;;;;;;30.95;18.08;;;;;;;18.78;61.59;94129.47;4982082;28;20088;-72
2022/05/26 03:00:40;;;;;;;27.10;18.45;;;;;;;18.81;60.75;94112.59;4982309;28;23068;-72
2022/05/26 03:03:43;;;;;;;31.05;18.77;;;;;;;18.96;60.86;94139.81;4983881;28;20042;-72
2022/05/26 03:06:12;;;;;;;26.05;16.15;;;;;;;19.02;60.10;94141.84;4979378;28;20038;-72
2022/05/26 03:08:40;;;;;;;27.25;16.90;;;;;;;18.98;60.25;94148.28;4984711;28;20026;-72
2022/05/26 03:11:12;;;;;;;29.92;16.65;;;;;;;18.95;60.03;94141.72;4977422;28;20383;-72
2022/05/26 03:13:38;;;;;;;26.70;17.90;;;;;;;19.03;60.23;94156.09;4975082;28;21052;-71
2022/05/26 03:16:05;;;;;;;26.80;17.58;;;;;;;18.94;60.13;94163.63;4979006;28;20038;-72
2022/05/26 03:18:31;;;;;;;29.30;16.90;;;;;;;18.47;61.78;94172.72;4982417;28;20073;-72
2022/05/26 03:21:01;;;;;;;40.03;18.95;;;;;;;18.55;61.99;94179.00;4982375;28;20049;-72
2022/05/26 03:23:27;;;;;;;29.55;17.67;;;;;;;18.79;61.25;94186.84;4980133;28;20068;-72
2022/05/26 03:25:57;;;;;;;30.38;17.45;;;;;;;18.91;60.24;94186.69;4979678;28;20045;-71
2022/05/26 03:28:27;;;;;;;23.52;16.52;;;;;;;18.94;60.07;94182.50;4977795;28;20038;-72
2022/05/26 03:30:53;;;;;;;27.00;17.15;;;;;;;18.82;60.33;94162.66;4992721;28;20039;-72
2022/05/26 03:33:18;;;;;;;32.17;17.88;;;;;;;19.00;59.89;94179.16;4982025;28;20048;-70
2022/05/26 03:41:20;;;;;;;30.92;19.67;;;;;;;19.08;60.68;94178.16;4983311;28;20069;-72
2022/05/26 03:43:49;;;;;;;32.40;19.48;;;;;;;18.98;60.62;94156.38;4973548;28;20045;-72
2022/05/26 03:46:15;;;;;;;29.85;18.70;;;;;;;19.06;60.80;94166.19;4976379;28;20505;-71
2022/05/26 03:48:40;;;;;;;29.70;16.38;;;;;;;19.24;60.30;94180.75;4979644;28;20086;-72
2022/05/26 03:51:07;;;;;;;29.48;17.92;;;;;;;19.03;61.09;94166.88;4974918;28;20537;-72
2022/05/26 03:53:33;;;;;;;28.63;17.73;;;;;;;19.13;61.13;94193.25;4981750;28;20408;-72
2022/05/26 03:56:03;;;;;;;32.88;17.63;;;;;;;18.84;62.56;94192.72;4980056;28;20085;-72
2022/05/26 03:58:28;;;;;;;28.50;18.58;;;;;;;19.07;61.88;94200.84;4981307;28;20144;-72
2022/05/26 04:00:54;;;;;;;27.95;17.95;;;;;;;19.13;61.24;94201.34;4980235;28;20068;-72
2022/05/26 04:03:19;;;;;;;27.63;17.98;;;;;;;19.11;61.87;94222.50;4980002;28;20856;-71
2022/05/26 04:05:45;;;;;;;30.35;18.90;;;;;;;19.22;61.27;94212.66;4980532;28;20037;-71
2022/05/26 04:08:11;;;;;;;29.80;18.42;;;;;;;19.29;61.17;94223.59;4980463;28;20037;-71
2022/05/26 04:10:36;;;;;;;26.58;18.08;;;;;;;19.39;60.94;94223.00;4977034;28;20038;-73
2022/05/26 04:13:03;;;;;;;27.40;17.52;;;;;;;19.25;61.52;94212.75;4976443;28;20121;-71
2022/05/26 04:15:29;;;;;;;32.90;17.20;;;;;;;19.41;61.28;94219.97;4974203;28;20034;-72
2022/05/26 04:17:54;;;;;;;29.27;17.55;;;;;;;19.33;61.91;94221.75;4983129;28;20026;-72
2022/05/26 04:20:22;;;;;;;30.33;18.48;;;;;;;19.46;61.15;94225.06;4980919;28;20115;-72
2022/05/26 04:22:47;;;;;;;31.30;17.92;;;;;;;19.47;61.63;94213.91;4989278;28;20112;-73
2022/05/26 04:25:14;;;;;;;30.75;18.65;;;;;;;19.38;62.02;94221.44;4986238;28;20093;-72
2022/05/26 04:27:39;;;;;;;32.53;17.92;;;;;;;19.46;62.08;94222.38;4985685;28;20048;-72
2022/05/26 04:30:08;;;;;;;29.23;17.77;;;;;;;19.56;61.77;94227.94;4985988;28;20023;-71
2022/05/26 04:32:34;;;;;;;31.73;18.63;;;;;;;19.63;62.04;94230.78;4986072;28;20700;-71
2022/05/26 04:34:59;;;;;;;27.05;18.33;;;;;;;19.69;61.59;94229.34;4984717;28;20145;-72
2022/05/26 04:37:26;;;;;;;28.13;17.15;;;;;;;19.78;61.89;94231.00;4984106;28;20030;-71
2022/05/26 04:39:55;;;;;;;35.38;21.45;;;;;;;19.89;61.64;94223.88;4983100;28;20117;-72
2022/05/26 04:42:22;;;;;;;30.65;20.17;;;;;;;19.99;61.22;94234.06;4981737;28;20030;-72
2022/05/26 04:44:49;;;;;;;38.25;24.33;;;;;;;19.83;62.34;94236.09;4986123;28;20048;-71
2022/05/26 04:47:14;;;;;;;36.42;21.80;;;;;;;20.04;61.50;94231.06;4983770;28;20088;-72
2022/05/26 04:49:41;;;;;;;40.25;24.35;;;;;;;19.99;61.37;94229.44;4985687;28;20556;-71
2022/05/26 04:52:12;;;;;;;38.85;22.63;;;;;;;20.16;61.29;94230.84;4984359;28;20039;-72
2022/05/26 04:54:38;;;;;;;36.75;23.63;;;;;;;20.26;60.71;94222.16;4968576;28;20072;-71
2022/05/26 04:57:05;;;;;;;43.90;24.55;;;;;;;20.36;60.66;94235.03;4954741;28;20034;-72
2022/05/26 04:59:32;;;;;;;38.30;22.63;;;;;;;20.32;60.33;94225.31;4955541;28;20510;-72
2022/05/26 05:01:57;;;;;;;36.75;24.13;;;;;;;20.16;60.78;94236.25;4954428;28;20039;-72
2022/05/26 05:04:26;;;;;;;38.10;24.10;;;;;;;20.32;61.20;94236.91;4954601;28;20089;-72
2022/05/26 05:06:52;;;;;;;40.10;23.73;;;;;;;19.97;61.31;94179.63;4955115;28;20062;-72
2022/05/26 05:09:18;;;;;;;39.90;23.38;;;;;;;19.97;62.14;94225.53;4955308;28;20509;-73
2022/05/26 05:11:44;;;;;;;39.92;23.02;;;;;;;20.28;60.94;94219.88;4955416;28;20463;-72
2022/05/26 05:14:10;;;;;;;36.58;21.73;;;;;;;20.36;60.49;94231.53;4955683;28;20122;-73
2022/05/26 05:16:42;;;;;;;39.33;21.35;;;;;;;20.03;62.92;94240.28;4954305;28;20500;-72
2022/05/26 05:19:12;;;;;;;43.08;23.52;;;;;;;20.43;61.35;94237.06;4954633;28;20047;-72
2022/05/26 05:21:40;;;;;;;40.38;22.85;;;;;;;20.74;60.85;94233.97;4953876;28;20559;-72
2022/05/26 05:24:12;;;;;;;45.50;22.75;;;;;;;20.84;60.87;94224.44;4954163;28;20496;-71
2022/05/26 05:26:40;;;;;;;37.97;23.23;;;;;;;20.60;61.65;94245.41;4954101;28;20066;-73
2022/05/26 05:29:10;;;;;;;36.55;22.33;;;;;;;20.10;61.43;94241.16;4954505;28;20046;-71
2022/05/26 05:31:41;;;;;;;35.40;23.85;;;;;;;19.80;62.54;94253.03;4953368;28;20035;-72
2022/05/26 05:34:31;;;;;;;37.88;22.60;;;;;;;20.54;60.51;94249.56;4954899;28;20046;-71
2022/05/26 05:36:56;;;;;;;34.42;22.20;;;;;;;20.62;59.93;94253.16;4955822;28;20138;-72
2022/05/26 05:39:24;;;;;;;37.50;22.50;;;;;;;20.88;58.84;94257.75;4951821;28;20043;-72
2022/05/26 05:41:50;;;;;;;38.17;22.60;;;;;;;20.56;59.95;94243.78;4954173;28;20034;-72
2022/05/26 05:44:15;;;;;;;40.13;23.70;;;;;;;20.63;59.54;94262.78;4954252;28;20034;-72
2022/05/26 05:46:59;;;;;;;42.53;23.38;;;;;;;21.02;58.94;94268.75;4954026;28;20328;-72
2022/05/26 05:49:32;;;;;;;42.15;24.58;;;;;;;21.30;58.12;94269.09;4956713;28;20908;-71
2022/05/26 05:52:10;;;;;;;37.55;23.85;;;;;;;21.35;59.14;94270.66;4954081;28;20045;-72
2022/05/26 05:54:37;;;;;;;31.45;21.42;;;;;;;21.65;57.71;94276.03;4953609;28;20034;-72
2022/05/26 05:57:03;;;;;;;37.35;22.90;;;;;;;21.54;58.30;94288.66;4954974;28;20023;-72
2022/05/26 05:59:28;;;;;;;35.92;20.75;;;;;;;21.75;57.26;94284.28;4956059;28;20034;-72
2022/05/26 06:01:54;;;;;;;40.60;21.52;;;;;;;21.74;57.41;94280.00;4952826;28;20050;-72
2022/05/26 06:04:19;;;;;;;44.28;22.45;;;;;;;21.16;58.39;94290.56;4953038;28;20741;-72
2022/05/26 06:06:45;;;;;;;40.97;23.02;;;;;;;20.95;59.88;94264.03;4952927;28;20050;-71
2022/05/26 06:09:20;;;;;;;46.83;22.80;;;;;;;21.06;57.97;94299.31;4953138;28;20726;-71
2022/05/26 06:11:46;;;;;;;;;;;;;;;21.08;57.97;94296.22;4953445;28;20035;-72
2022/05/26 06:14:12;;;;;;;36.72;20.75;;;;;;;21.46;56.84;94299.38;4952575;28;19929;-73
2022/05/26 06:16:38;;;;;;;35.92;22.98;;;;;;;21.60;55.53;94298.81;4954981;28;20625;-72
2022/05/26 06:19:04;;;;;;;32.97;21.17;;;;;;;21.81;55.21;94303.63;4953264;28;20102;-72
2022/05/26 06:21:29;;;;;;;39.42;22.60;;;;;;;21.80;55.96;94294.72;4951896;28;20130;-72
2022/05/26 06:23:56;;;;;;;30.67;20.15;;;;;;;22.12;55.70;94299.66;4952709;28;20038;-72
2022/05/26 06:26:26;;;;;;;34.38;19.65;;;;;;;22.29;53.39;94305.25;4951732;28;20031;-72
2022/05/26 06:31:36;;;;;;;33.53;19.58;;;;;;;22.29;53.86;94299.84;4973808;28;20065;-72
2022/05/26 06:39:30;;;;;;;33.85;18.13;;;;;;;22.45;51.60;94301.50;4982917;28;20037;-72
2022/05/26 06:42:09;;;;;;;39.20;20.77;;;;;;;22.03;54.67;94313.53;4984265;28;21110;-71
2022/05/26 06:44:42;;;;;;;37.63;22.38;;;;;;;21.56;57.31;94308.03;4982100;28;20147;-72
2022/05/26 06:47:10;;;;;;;36.35;22.48;;;;;;;21.64;57.52;94309.66;4981239;28;20054;-72
2022/05/26 06:49:38;;;;;;;40.58;24.17;;;;;;;21.05;58.71;94305.88;4986892;28;20034;-72
2022/05/26 06:52:05;;;;;;;40.15;22.58;;;;;;;21.33;58.73;94319.72;4978649;28;20058;-72
2022/05/26 06:54:32;;;;;;;43.80;23.80;;;;;;;21.68;57.32;94318.59;4972346;28;20407;-72
2022/05/26 06:56:58;;;;;;;41.88;23.67;;;;;;;21.83;55.92;94323.78;4983715;28;20622;-71
2022/05/26 06:59:24;;;;;;;47.28;25.27;;;;;;;21.42;56.32;94328.34;4979585;28;20046;-72
2022/05/26 07:01:50;;;;;;;37.40;23.20;;;;;;;21.61;56.90;94329.38;4984420;28;20040;-72
2022/05/26 07:04:15;;;;;;;34.92;22.80;;;;;;;21.87;54.92;94318.41;4982111;28;20405;-72
2022/05/26 07:06:40;;;;;;;34.92;19.55;;;;;;;21.91;54.21;94338.16;4979249;28;20224;-72
2022/05/26 07:09:06;;;;;;;33.65;17.20;;;;;;;22.06;52.11;94320.91;4983483;28;20484;-72
2022/05/26 07:11:32;;;;;;;28.00;14.57;;;;;;;22.33;50.91;94334.31;4983435;28;20030;-72
2022/05/26 07:13:57;;;;;;;24.02;13.48;;;;;;;22.48;49.24;94336.78;4974135;28;20128;-72
2022/05/26 07:16:23;;;;;;;22.48;14.38;;;;;;;22.57;49.81;94341.88;4973221;28;20622;-72
2022/05/26 07:18:50;;;;;;;19.83;10.25;;;;;;;22.80;48.31;94336.22;4977595;28;20037;-72
2022/05/26 07:21:16;;;;;;;28.13;13.02;;;;;;;22.61;48.51;94320.97;4974447;28;20820;-72
2022/05/26 07:23:42;;;;;;;17.85;11.13;;;;;;;22.90;47.96;94346.38;4979818;28;20026;-73
2022/05/26 07:26:12;;;;;;;19.30;11.38;;;;;;;22.97;47.80;94341.78;4978131;28;20841;-72
2022/05/26 07:28:40;;;;;;;17.77;9.88;;;;;;;23.10;46.76;94340.31;4978529;28;20081;-72
2022/05/26 07:31:06;;;;;;;10.18;4.38;;;;;;;23.17;41.66;94329.47;4971961;28;20047;-72
2022/05/26 07:33:32;;;;;;;7.35;3.92;;;;;;;23.19;40.21;94331.03;4972395;28;20069;-72
2022/05/26 07:35:57;;;;;;;9.13;3.50;;;;;;;23.25;39.12;94329.50;4981198;28;20399;-72
2022/05/26 07:41:16;;;;;;;6.30;2.80;;;;;;;23.21;39.43;94328.72;4979368;28;20046;-72
2022/05/26 07:43:44;;;;;;;9.50;2.80;;;;;;;23.30;38.92;94329.16;4976730;28;20045;-72
2022/05/26 07:46:10;;;;;;;15.88;3.25;;;;;;;23.27;38.01;94316.34;4974929;28;20444;-72
2022/05/26 07:48:36;;;;;;;7.82;2.78;;;;;;;23.24;37.72;94323.31;4975625;28;20505;-72
2022/05/26 07:51:02;;;;;;;7.22;2.60;;;;;;;23.32;38.20;94330.31;4978746;28;20034;-71
2022/05/26 07:53:27;;;;;;;4.80;2.80;;;;;;;23.23;39.44;94324.47;4976837;28;20026;-72
2022/05/26 07:55:53;;;;;;;4.70;2.55;;;;;;;23.42;37.82;94335.00;4974507;28;20724;-72
2022/05/26 07:58:20;;;;;;;8.82;3.47;;;;;;;23.41;39.40;94333.47;4977081;28;20042;-72
2022/05/26 08:00:46;;;;;;;9.10;3.38;;;;;;;23.48;39.47;94338.13;4979161;28;20093;-72
2022/05/26 08:03:11;;;;;;;21.10;4.00;;;;;;;23.44;39.40;94334.63;4977047;28;20440;-72
2022/05/26 08:05:38;;;;;;;5.07;3.33;;;;;;;23.52;38.94;94334.28;4976931;28;20436;-72
2022/05/26 08:08:04;;;;;;;8.57;4.28;;;;;;;23.47;39.19;94331.13;4978969;28;20042;-72
2022/05/26 08:10:29;;;;;;;12.77;3.42;;;;;;;23.49;38.21;94350.59;4978676;28;20503;-71
2022/05/26 08:12:55;;;;;;;4.97;2.95;;;;;;;23.51;39.44;94342.84;4978754;28;20051;-72
2022/05/26 08:15:22;;;;;;;4.38;2.90;;;;;;;23.57;38.60;94344.00;4978301;28;20554;-72
2022/05/26 08:17:48;;;;;;;4.85;3.25;;;;;;;23.55;38.33;94349.06;4979922;28;20563;-72
2022/05/26 08:20:13;;;;;;;8.13;2.95;;;;;;;23.65;38.26;94348.31;4979524;28;20551;-72
2022/05/26 08:22:39;;;;;;;12.35;2.53;;;;;;;23.64;38.82;94346.75;4978483;28;20054;-72
2022/05/26 08:25:05;;;;;;;4.80;2.90;;;;;;;23.74;37.74;94346.00;4979500;28;20077;-71
2022/05/26 08:27:30;;;;;;;7.55;2.95;;;;;;;23.60;38.59;94347.91;4978754;28;20113;-72
2022/05/26 08:29:56;;;;;;;3.88;3.33;;;;;;;23.66;38.84;94349.84;4981605;28;20183;-73
2022/05/26 08:32:23;;;;;;;5.47;2.72;;;;;;;23.50;38.75;94341.28;4976262;28;20512;-71
2022/05/26 08:34:49;;;;;;;4.97;2.58;;;;;;;23.61;38.39;94365.75;4977071;28;20042;-72
2022/05/26 08:37:17;;;;;;;3.35;2.42;;;;;;;23.54;38.94;94355.63;4977041;28;20474;-72
2022/05/26 08:39:42;;;;;;;6.05;3.22;;;;;;;23.62;39.09;94365.34;4978480;28;20038;-72
2022/05/26 08:42:15;;;;;;;8.65;3.60;;;;;;;23.50;38.65;94357.56;4976089;28;20238;-72
2022/05/26 08:44:41;;;;;;;7.70;3.58;;;;;;;23.62;39.37;94346.34;4974713;28;20015;-72
2022/05/26 08:47:13;;;;;;;8.65;3.47;;;;;;;23.70;38.66;94366.97;4981976;28;20104;-71
2022/05/26 08:49:42;;;;;;;4.40;2.88;;;;;;;23.60;38.62;94343.25;4973468;28;20669;-71
2022/05/26 08:52:10;;;;;;;19.42;4.03;;;;;;;23.67;38.01;94365.00;4975208;28;20042;-74
2022/05/26 08:54:47;;;;;;;6.20;3.05;;;;;;;23.64;37.99;94371.19;4973272;28;20759;-73
2022/05/26 08:57:18;;;;;;;5.30;2.92;;;;;;;23.56;37.85;94362.22;4976805;28;20441;-73
2022/05/26 08:59:46;;;;;;;8.40;2.53;;;;;;;23.60;38.06;94356.84;4976784;28;20031;-74
2022/05/26 09:02:26;;;;;;;5.38;2.75;;;;;;;23.71;38.67;94360.34;4978758;28;20437;-73
2022/05/26 09:05:13;;;;;;;10.05;3.22;;;;;;;23.78;37.67;94362.31;4977063;28;20100;-73
2022/05/26 09:13:17;;;;;;;6.55;3.45;;;;;;;23.79;37.36;94353.00;4982482;28;20575;-74
2022/05/26 09:15:43;;;;;;;4.50;2.13;;;;;;;23.76;36.64;94343.69;4983059;28;20046;-73
2022/05/26 09:18:17;;;;;;;14.30;2.80;;;;;;;23.84;36.17;94361.56;4983528;28;20036;-74
2022/05/26 09:20:49;;;;;;;9.07;2.90;;;;;;;23.87;35.93;94358.06;4980711;28;20556;-73
2022/05/26 09:23:20;;;;;;;4.50;2.72;;;;;;;23.90;36.13;94364.69;4979819;28;20044;-73
2022/05/26 09:25:49;;;;;;;5.75;2.47;;;;;;;24.05;35.83;94362.78;4982190;28;20031;-74
2022/05/26 09:28:32;;;;;;;7.63;2.17;;;;;;;23.96;35.20;94371.28;4980231;28;20617;-74
2022/05/26 09:31:21;;;;;;;6.40;2.53;;;;;;;23.94;35.29;94371.69;4982719;28;20058;-74
2022/05/26 09:34:04;;;;;;;3.10;2.67;;;;;;;23.97;35.74;94370.13;4983131;28;20046;-74
2022/05/26 09:36:42;;;;;;;4.95;2.65;;;;;;;24.07;36.03;94360.44;4975325;28;20046;-73
2022/05/26 09:39:09;;;;;;;3.83;2.60;;;;;;;23.99;34.64;94352.28;4976913;28;20027;-73
2022/05/26 09:41:47;;;;;;;3.40;2.28;;;;;;;24.12;32.13;94354.66;4976087;28;20022;-74
2022/05/26 09:44:32;;;;;;;3.03;1.90;;;;;;;24.00;32.61;94353.81;4981572;28;20690;-74
2022/05/26 09:47:01;;;;;;;3.63;2.00;;;;;;;24.14;33.57;94352.34;4980453;28;20140;-75
2022/05/26 09:49:32;;;;;;;3.13;2.13;;;;;;;24.21;33.17;94361.25;4982112;28;20039;-73
2022/05/26 09:52:44;;;;;;;5.25;2.15;;;;;;;24.30;33.55;94369.03;4982284;28;20049;-73
2022/05/26 09:55:32;;;;;;;5.70;2.35;;;;;;;24.32;32.58;94364.78;4978859;28;20802;-73
2022/05/26 09:58:27;;;;;;;4.50;2.20;;;;;;;24.33;32.98;94344.59;4978082;28;20037;-74
2022/05/26 10:00:53;;;;;;;;;;;;;;;24.43;33.14;94359.34;4982127;28;20458;-74
2022/05/26 10:03:37;;;;;;;6.75;2.88;;;;;;;24.32;33.01;94351.19;4980388;28;19914;-73
2022/05/26 10:06:11;;;;;;;2.90;1.73;;;;;;;24.53;32.26;94347.72;4963856;28;20437;-73
2022/05/26 10:09:14;;;;;;;5.97;2.10;;;;;;;24.59;31.53;94348.09;4975991;28;20026;-74
2022/05/26 10:12:01;;;;;;;5.57;1.73;;;;;;;24.58;31.65;94347.31;4976717;28;20244;-72
2022/05/26 10:14:48;;;;;;;3.90;1.77;;;;;;;24.63;32.39;94344.22;4972228;28;20045;-74
2022/05/26 10:17:22;;;;;;;4.13;2.00;;;;;;;24.63;32.12;94343.44;4970616;28;20336;-73
2022/05/26 10:20:00;;;;;;;4.53;2.28;;;;;;;24.68;31.51;94345.75;4963791;28;20053;-72
2022/05/26 10:22:49;;;;;;;7.45;1.98;;;;;;;24.65;31.12;94350.00;4976126;28;20124;-73
2022/05/26 10:25:25;;;;;;;5.18;1.90;;;;;;;24.64;30.19;94347.69;4981206;28;20040;-74
2022/05/26 10:27:53;;;;;;;3.60;2.20;;;;;;;24.61;29.95;94346.53;4972903;28;20073;-73
2022/05/26 10:30:49;;;;;;;8.60;1.85;;;;;;;24.59;29.61;94357.00;4982449;28;20038;-73
2022/05/26 10:33:42;;;;;;;8.88;1.80;;;;;;;24.53;28.62;94353.16;4983538;28;20972;-73
2022/05/26 10:36:29;;;;;;;4.50;1.75;;;;;;;24.47;30.74;94343.81;4983832;28;20018;-73
2022/05/26 10:39:30;;;;;;;3.75;1.70;;;;;;;24.60;30.48;94342.25;4978566;28;20336;-73
2022/05/26 10:42:06;;;;;;;4.05;1.88;;;;;;;24.61;30.92;94338.38;4957589;28;20095;-73
2022/05/26 10:44:46;;;;;;;10.05;2.83;;;;;;;24.74;32.15;94350.41;4961442;28;20101;-74
2022/05/26 10:47:11;;;;;;;5.32;2.35;;;;;;;24.83;31.85;94348.06;4975867;28;20523;-73
2022/05/26 10:49:45;;;;;;;3.03;2.17;;;;;;;24.87;32.00;94337.22;4978638;28;20148;-74
2022/05/26 10:52:29;;;;;;;;;;;;;;;24.91;32.42;94340.69;4978764;28;20121;-73
2022/05/26 10:55:26;;;;;;;3.92;2.42;;;;;;;24.96;32.36;94336.81;4981420;28;20154;-73
2022/05/26 10:58:00;;;;;;;5.90;2.72;;;;;;;24.97;32.59;94338.34;4977946;28;20608;-73
2022/05/26 11:00:29;;;;;;;4.32;2.03;;;;;;;25.05;33.88;94329.00;4982748;28;20497;-74
2022/05/26 11:03:03;;;;;;;3.83;2.40;;;;;;;25.15;34.27;94328.19;4981906;28;20142;-73
2022/05/26 11:05:43;;;;;;;;;;;;;;;25.24;33.63;94318.44;4982052;28;20094;-73
2022/05/26 11:08:20;;;;;;;4.22;2.88;;;;;;;25.02;35.39;94324.34;4982066;28;20040;-73
2022/05/26 11:10:54;;;;;;;3.97;2.78;;;;;;;25.14;35.02;94326.63;4981062;28;20405;-73
2022/05/26 11:14:02;;;;;;;5.50;3.10;;;;;;;25.29;35.53;94311.81;4983850;28;20089;-73
2022/05/26 11:19:33;;;;;;;5.18;3.13;;;;;;;25.16;36.51;94322.38;4981438;28;20075;-73
2022/05/26 11:22:00;;;;;;;6.03;2.33;;;;;;;25.04;34.86;94300.22;4983148;28;20061;-73
2022/05/26 11:24:25;;;;;;;13.80;3.10;;;;;;;25.01;34.21;94317.34;4969576;28;20486;-71
2022/05/26 11:27:09;;;;;;;5.28;2.15;;;;;;;24.91;34.22;94323.59;4981108;28;20038;-74
2022/05/26 11:29:40;;;;;;;11.18;2.80;;;;;;;24.78;34.42;94315.09;4982871;28;20054;-73
2022/05/26 11:38:53;;;;;;;6.88;3.28;;;;;;;24.94;35.29;94296.38;4983541;28;20049;-73
2022/05/26 11:41:36;;;;;;;4.25;2.47;;;;;;;25.07;34.37;94302.97;4982029;28;20128;-73
2022/05/26 11:44:08;;;;;;;5.57;2.53;;;;;;;24.98;34.00;94288.97;4984340;28;20114;-73
2022/05/26 11:46:43;;;;;;;3.50;2.78;;;;;;;24.93;34.46;94305.69;4978448;28;20045;-73
2022/05/26 11:49:10;;;;;;;2.42;2.22;;;;;;;24.35;35.34;94276.22;4977370;28;20054;-73
2022/05/26 11:51:39;;;;;;;4.03;2.45;;;;;;;24.76;34.94;94298.38;4981055;28;20058;-73
2022/05/26 11:54:09;;;;;;;8.82;3.75;;;;;;;24.55;35.94;94301.84;4983285;28;20030;-73
2022/05/26 11:56:42;;;;;;;6.63;2.95;;;;;;;24.80;35.82;94290.97;4982378;28;20022;-73
2022/05/26 11:59:23;;;;;;;5.60;2.75;;;;;;;24.72;35.89;94290.22;4981000;28;20057;-72
2022/05/26 12:01:58;;;;;;;4.03;2.45;;;;;;;24.90;35.77;94306.50;4981266;28;20046;-73
2022/05/26 12:04:24;;;;;;;;;;;;;;;25.07;35.34;94305.69;4981369;28;20096;-74
2022/05/26 12:06:52;;;;;;;6.30;2.55;;;;;;;25.14;35.83;94302.16;4981074;28;20033;-74
2022/05/26 12:09:41;;;;;;;4.18;2.85;;;;;;;25.32;35.81;94305.63;4975894;28;20834;-73
2022/05/26 12:12:28;;;;;;;6.90;3.50;;;;;;;25.43;35.49;94314.50;4974563;28;20480;-73
2022/05/26 12:15:06;;;;;;;4.32;3.00;;;;;;;25.42;36.37;94310.22;4981134;28;20580;-74
2022/05/26 12:17:38;;;;;;;11.30;3.80;;;;;;;25.40;36.40;94318.03;4979414;28;20155;-73